createdAt,value
2022-09-24T00:02:17.957Z,10.71
2022-09-24T00:04:54.637Z,10.84
2022-09-24T00:07:31.720Z,10.88
2022-09-24T00:10:13.662Z,10.94
2022-09-24T00:12:44.694Z,10.97
2022-09-24T00:15:18.962Z,10.98
2022-09-24T00:18:01.892Z,10.96
2022-09-24T00:20:37.120Z,10.94
2022-09-24T00:23:15.115Z,10.93
2022-09-24T00:26:13.967Z,10.89
2022-09-24T00:28:57.804Z,10.85
2022-09-24T00:31:40.191Z,10.84
2022-09-24T00:34:20.365Z,10.88
2022-09-24T00:36:55.280Z,10.89
2022-09-24T00:39:34.094Z,10.89
2022-09-24T00:42:02.189Z,10.84
2022-09-24T00:44:44.175Z,10.79
2022-09-24T00:47:22.600Z,10.67
2022-09-24T00:49:49.964Z,10.81
2022-09-24T00:52:17.798Z,10.86
2022-09-24T00:54:44.914Z,10.85
2022-09-24T00:57:12.699Z,10.85
2022-09-24T00:59:41.996Z,10.82
2022-09-24T01:02:08.792Z,10.87
2022-09-24T01:04:36.594Z,10.88
2022-09-24T01:07:03.886Z,10.82
2022-09-24T01:09:30.639Z,10.80
2022-09-24T01:12:15.873Z,10.67
2022-09-24T01:15:06.133Z,10.70
2022-09-24T01:17:43.697Z,10.78
2022-09-24T01:20:31.411Z,10.93
2022-09-24T01:23:07.259Z,10.96
2022-09-24T01:25:36.645Z,11.03
2022-09-24T01:28:24.409Z,11.04
2022-09-24T01:30:55.959Z,11.02
2022-09-24T01:33:25.812Z,10.94
2022-09-24T01:35:57.325Z,10.89
2022-09-24T01:38:33.855Z,10.88
2022-09-24T01:41:02.935Z,10.85
2022-09-24T01:43:30.386Z,10.80
2022-09-24T01:46:00.037Z,10.68
2022-09-24T01:48:27.395Z,10.68
2022-09-24T01:51:07.790Z,10.69
2022-09-24T01:53:46.926Z,10.66
2022-09-24T01:56:22.239Z,10.60
2022-09-24T01:59:23.108Z,10.61
2022-09-24T02:01:57.959Z,10.63
2022-09-24T02:04:27.799Z,10.63
2022-09-24T02:07:00.640Z,10.64
2022-09-24T02:09:40.128Z,10.65
2022-09-24T02:12:27.505Z,10.64
2022-09-24T02:15:00.846Z,10.65
2022-09-24T02:17:32.131Z,10.66
2022-09-24T02:20:03.469Z,10.63
2022-09-24T02:22:31.640Z,10.54
2022-09-24T02:25:01.143Z,10.54
2022-09-24T02:27:28.242Z,10.74
2022-09-24T02:29:59.429Z,10.68
2022-09-24T02:32:31.509Z,10.68
2022-09-24T02:35:02.643Z,10.61
2022-09-24T02:37:35.130Z,10.66
2022-09-24T02:40:04.199Z,10.67
2022-09-24T02:42:31.106Z,10.68
2022-09-24T02:44:59.635Z,10.69
2022-09-24T02:47:26.737Z,10.69
2022-09-24T02:49:53.486Z,10.73
2022-09-24T02:52:20.847Z,10.71
2022-09-24T02:54:47.625Z,10.66
2022-09-24T02:57:14.135Z,10.59
2022-09-24T02:59:40.712Z,10.57
2022-09-24T03:02:07.368Z,10.57
2022-09-24T03:04:34.044Z,10.52
2022-09-24T03:07:00.924Z,10.52
2022-09-24T03:09:28.208Z,10.51
2022-09-24T03:11:55.168Z,10.54
2022-09-24T03:14:21.788Z,10.60
2022-09-24T03:16:48.259Z,10.63
2022-09-24T03:19:14.700Z,10.55
2022-09-24T03:21:41.240Z,10.52
2022-09-24T03:24:07.843Z,10.57
2022-09-24T03:27:36.589Z,10.51
2022-09-24T03:31:24.261Z,10.55
2022-09-24T03:35:12.110Z,10.45
2022-09-24T03:39:00.041Z,10.45
2022-09-24T03:42:48.396Z,10.43
2022-09-24T03:46:36.310Z,10.40
2022-09-24T03:50:23.890Z,10.38
2022-09-24T03:54:12.168Z,10.32
2022-09-24T03:58:00.071Z,10.34
2022-09-24T04:01:48.031Z,10.25
2022-09-24T04:05:35.706Z,10.31
2022-09-24T04:09:23.398Z,10.12
2022-09-24T04:13:11.072Z,10.02
2022-09-24T04:17:01.444Z,9.99
2022-09-24T04:20:49.008Z,9.92
2022-09-24T04:24:36.604Z,9.87
2022-09-24T04:28:24.275Z,9.82
2022-09-24T04:32:13.191Z,9.77
2022-09-24T04:36:00.941Z,9.68
2022-09-24T04:39:48.734Z,9.71
2022-09-24T04:43:37.150Z,9.66
2022-09-24T04:47:24.931Z,9.59
2022-09-24T04:51:13.051Z,9.65
2022-09-24T04:55:01.384Z,9.70
2022-09-24T04:58:49.333Z,9.64
2022-09-24T05:02:37.428Z,9.55
2022-09-24T05:06:25.430Z,9.49
2022-09-24T05:10:13.174Z,9.54
2022-09-24T05:14:00.631Z,9.48
2022-09-24T05:17:48.846Z,9.52
2022-09-24T05:21:36.690Z,9.51
2022-09-24T05:25:24.660Z,9.61
2022-09-24T05:29:12.403Z,9.66
2022-09-24T05:33:00.264Z,9.78
2022-09-24T05:36:47.931Z,9.83
2022-09-24T05:40:34.784Z,9.86
2022-09-24T05:44:22.635Z,9.93
2022-09-24T05:48:10.983Z,10.01
2022-09-24T05:51:58.958Z,10.11
2022-09-24T05:55:46.869Z,10.17
2022-09-24T05:59:34.859Z,10.26
2022-09-24T06:03:22.761Z,10.35
2022-09-24T06:07:10.734Z,10.50
2022-09-24T06:10:58.736Z,10.55
2022-09-24T06:14:47.477Z,10.61
2022-09-24T06:18:36.025Z,10.69
2022-09-24T06:22:28.955Z,10.73
2022-09-24T06:26:17.665Z,10.86
2022-09-24T06:30:06.104Z,11.07
2022-09-24T06:33:54.997Z,11.33
2022-09-24T06:37:45.695Z,11.58
2022-09-24T06:41:33.883Z,11.79
2022-09-24T06:45:21.876Z,12.05
2022-09-24T06:49:09.973Z,12.17
2022-09-24T06:52:58.018Z,12.35
2022-09-24T06:56:45.721Z,12.76
2022-09-24T07:00:34.503Z,13.04
2022-09-24T07:04:22.322Z,14.62
2022-09-24T07:08:10.183Z,15.38
2022-09-24T07:11:58.348Z,14.94
2022-09-24T07:15:46.184Z,15.01
2022-09-24T07:19:33.828Z,14.95
2022-09-24T07:23:22.111Z,14.97
2022-09-24T07:26:49.659Z,14.96
2022-09-24T07:30:07.003Z,15.25
2022-09-24T07:33:26.603Z,15.34
2022-09-24T07:37:06.762Z,15.46
2022-09-24T07:40:54.669Z,15.79
2022-09-24T07:44:45.162Z,16.16
2022-09-24T07:48:17.179Z,16.68
2022-09-24T07:51:55.720Z,17.00
2022-09-24T07:55:44.603Z,17.15
2022-09-24T07:59:32.663Z,17.17
2022-09-24T08:03:21.118Z,17.06
2022-09-24T08:07:11.603Z,17.10
2022-09-24T08:10:52.205Z,17.27
2022-09-24T08:14:40.724Z,17.53
2022-09-24T08:18:29.246Z,17.45
2022-09-24T08:22:01.458Z,17.50
2022-09-24T08:25:50.442Z,17.64
2022-09-24T08:29:39.595Z,17.60
2022-09-24T08:33:27.598Z,17.84
2022-09-24T08:36:59.039Z,17.94
2022-09-24T08:40:37.740Z,17.98
2022-09-24T08:44:30.784Z,18.05
2022-09-24T08:48:13.759Z,18.33
2022-09-24T08:51:54.391Z,18.51
2022-09-24T08:55:24.357Z,18.82
2022-09-24T08:59:11.272Z,19.09
2022-09-24T09:02:18.678Z,19.23
2022-09-24T09:06:27.930Z,19.10
2022-09-24T09:09:58.954Z,19.41
2022-09-24T09:13:30.340Z,19.37
2022-09-24T09:16:53.464Z,19.87
2022-09-24T09:20:22.208Z,19.86
2022-09-24T09:23:56.992Z,20.26
2022-09-24T09:27:21.455Z,20.56
2022-09-24T09:31:09.202Z,20.21
2022-09-24T09:35:05.288Z,20.60
2022-09-24T09:39:02.476Z,20.09
2022-09-24T09:43:00.175Z,19.65
2022-09-24T09:46:53.950Z,19.34
2022-09-24T09:50:44.787Z,18.82
2022-09-24T09:54:37.880Z,18.56
2022-09-24T09:58:01.632Z,18.52
2022-09-24T10:01:50.719Z,19.03
2022-09-24T10:04:41.208Z,19.36
2022-09-24T10:08:12.030Z,19.46
2022-09-24T10:12:00.923Z,19.73
2022-09-24T10:15:40.771Z,20.08
2022-09-24T10:19:29.765Z,19.36
2022-09-24T10:23:18.441Z,19.31
2022-09-24T10:27:10.727Z,19.79
2022-09-24T10:30:58.688Z,19.94
2022-09-24T10:34:44.500Z,19.41
2022-09-24T10:38:22.191Z,19.46
2022-09-24T10:42:08.914Z,19.61
2022-09-24T10:45:56.499Z,19.98
2022-09-24T10:49:44.530Z,19.80
2022-09-24T10:53:42.049Z,19.61
2022-09-24T10:57:05.466Z,20.26
2022-09-24T11:01:03.383Z,21.71
2022-09-24T11:04:38.964Z,22.05
2022-09-24T11:08:39.054Z,22.37
2022-09-24T11:12:24.771Z,21.55
2022-09-24T11:16:33.586Z,22.29
2022-09-24T11:20:19.789Z,22.71
2022-09-24T11:23:53.566Z,21.89
2022-09-24T11:27:29.499Z,21.66
2022-09-24T11:31:32.446Z,21.52
2022-09-24T11:35:29.115Z,20.89
2022-09-24T11:39:22.538Z,21.18
2022-09-24T11:43:13.417Z,21.53
2022-09-24T11:47:13.095Z,21.26
2022-09-24T11:51:00.953Z,21.18
2022-09-24T11:54:48.845Z,21.01
2022-09-24T11:58:32.867Z,21.00
2022-09-24T12:02:20.679Z,21.53
2022-09-24T12:06:07.020Z,21.74
2022-09-24T12:09:54.978Z,21.44
2022-09-24T12:13:55.048Z,21.74
2022-09-24T12:17:46.429Z,21.44
2022-09-24T12:21:29.836Z,21.60
2022-09-24T12:25:21.465Z,21.99
2022-09-24T12:29:00.608Z,22.14
2022-09-24T12:32:42.426Z,22.32
2022-09-24T12:36:44.355Z,22.76
2022-09-24T12:40:34.045Z,23.25
2022-09-24T12:44:34.354Z,23.40
2022-09-24T12:48:24.116Z,23.60
2022-09-24T12:52:14.476Z,23.93
2022-09-24T12:55:54.653Z,23.98
2022-09-24T12:59:43.358Z,24.26
2022-09-24T13:03:32.237Z,23.46
2022-09-24T13:07:23.851Z,23.34
2022-09-24T13:11:17.474Z,23.51
2022-09-24T13:15:13.127Z,23.45
2022-09-24T13:19:01.428Z,23.40
2022-09-24T13:23:01.481Z,22.81
2022-09-24T13:27:02.126Z,23.19
2022-09-24T13:30:48.913Z,23.13
2022-09-24T13:34:37.076Z,23.19
2022-09-24T13:38:23.129Z,23.16
2022-09-24T13:42:21.742Z,23.03
2022-09-24T13:46:10.008Z,22.86
2022-09-24T13:49:45.067Z,22.99
2022-09-24T13:53:39.361Z,23.26
2022-09-24T13:57:32.486Z,23.69
2022-09-24T14:01:01.714Z,24.09
2022-09-24T14:04:43.374Z,24.33
2022-09-24T14:07:33.780Z,24.40
2022-09-24T14:11:11.192Z,23.90
2022-09-24T14:14:51.670Z,23.72
2022-09-24T14:18:25.271Z,23.49
2022-09-24T14:22:15.771Z,23.31
2022-09-24T14:25:55.715Z,23.32
2022-09-24T14:29:43.944Z,23.45
2022-09-24T14:32:52.281Z,23.80
2022-09-24T14:36:19.948Z,23.75
2022-09-24T14:40:08.287Z,23.51
2022-09-24T14:43:59.323Z,23.45
2022-09-24T14:47:18.895Z,23.12
2022-09-24T14:51:10.230Z,22.92
2022-09-24T14:55:06.243Z,23.02
2022-09-24T14:59:03.020Z,23.13
2022-09-24T15:02:23.776Z,22.74
2022-09-24T15:06:12.034Z,22.49
2022-09-24T15:10:05.546Z,22.38
2022-09-24T15:13:53.273Z,22.73
2022-09-24T15:17:50.050Z,23.14
2022-09-24T15:21:19.192Z,23.35
2022-09-24T15:25:02.499Z,22.94
2022-09-24T15:28:51.196Z,22.34
2022-09-24T15:32:39.919Z,21.86
2022-09-24T15:36:09.483Z,21.61
2022-09-24T15:39:57.318Z,21.17
2022-09-24T15:43:45.620Z,20.79
2022-09-24T15:46:47.583Z,20.49
2022-09-24T15:50:09.620Z,20.24
2022-09-24T15:53:15.387Z,19.77
2022-09-24T15:56:32.201Z,19.32
2022-09-24T16:00:11.223Z,19.09
2022-09-24T16:03:59.491Z,18.65
2022-09-24T16:07:17.262Z,18.20
2022-09-24T16:10:58.648Z,17.84
2022-09-24T16:14:18.373Z,17.55
2022-09-24T16:17:38.853Z,17.26
2022-09-24T16:21:01.074Z,17.15
2022-09-24T16:24:32.791Z,17.10
2022-09-24T16:27:38.496Z,16.95
2022-09-24T16:30:45.571Z,16.75
2022-09-24T16:34:33.660Z,16.66
2022-09-24T16:38:03.241Z,16.37
2022-09-24T16:41:51.676Z,16.13
2022-09-24T16:45:14.098Z,15.87
2022-09-24T16:48:43.811Z,15.63
2022-09-24T16:51:47.624Z,15.47
2022-09-24T16:54:48.273Z,15.35
2022-09-24T16:57:49.933Z,15.28
2022-09-24T17:01:07.123Z,15.28
2022-09-24T17:04:35.268Z,15.23
2022-09-24T17:07:17.803Z,15.09
2022-09-24T17:10:41.410Z,14.96
2022-09-24T17:14:00.887Z,14.79
2022-09-24T17:17:50.474Z,14.73
2022-09-24T17:21:11.212Z,14.63
2022-09-24T17:24:41.914Z,14.50
2022-09-24T17:28:03.639Z,14.45
2022-09-24T17:31:26.466Z,14.33
2022-09-24T17:35:06.991Z,14.25
2022-09-24T17:38:52.367Z,14.20
2022-09-24T17:42:25.264Z,14.14
2022-09-24T17:45:54.885Z,13.95
2022-09-24T17:49:43.499Z,13.92
2022-09-24T17:52:35.144Z,13.75
2022-09-24T17:55:53.825Z,13.78
2022-09-24T17:58:52.197Z,13.76
2022-09-24T18:01:32.971Z,13.74
2022-09-24T18:04:54.231Z,13.79
2022-09-24T18:07:49.912Z,13.89
2022-09-24T18:11:44.616Z,13.99
2022-09-24T18:14:55.267Z,13.95
2022-09-24T18:18:36.708Z,13.90
2022-09-24T18:22:05.688Z,13.85
2022-09-24T18:25:16.745Z,13.77
2022-09-24T18:28:25.674Z,13.92
2022-09-24T18:31:52.743Z,13.91
2022-09-24T18:35:13.072Z,13.62
2022-09-24T18:38:36.496Z,13.51
2022-09-24T18:42:20.600Z,13.44
2022-09-24T18:44:54.021Z,13.43
2022-09-24T18:48:01.853Z,13.54
2022-09-24T18:51:25.772Z,13.47
2022-09-24T18:55:04.879Z,13.35
2022-09-24T18:58:53.122Z,13.23
2022-09-24T19:02:31.877Z,13.19
2022-09-24T19:05:58.557Z,13.13
2022-09-24T19:09:13.625Z,13.08
2022-09-24T19:12:41.369Z,13.05
2022-09-24T19:16:13.245Z,13.06
2022-09-24T19:19:37.653Z,12.92
2022-09-24T19:23:19.475Z,12.91
2022-09-24T19:26:46.255Z,12.86
2022-09-24T19:29:58.572Z,12.83
2022-09-24T19:33:19.157Z,12.62
2022-09-24T19:36:42.792Z,12.33
2022-09-24T19:40:06.126Z,12.36
2022-09-24T19:43:45.404Z,12.32
2022-09-24T19:47:34.210Z,12.24
2022-09-24T19:51:22.078Z,12.22
2022-09-24T19:54:30.082Z,12.22
2022-09-24T19:57:51.918Z,12.21
2022-09-24T20:01:22.122Z,12.21
2022-09-24T20:05:11.828Z,12.22
2022-09-24T20:08:29.899Z,12.26
2022-09-24T20:12:18.125Z,12.24
2022-09-24T20:16:07.297Z,12.29
2022-09-24T20:19:48.753Z,12.29
2022-09-24T20:23:17.314Z,12.30
2022-09-24T20:26:36.002Z,12.29
2022-09-24T20:30:24.870Z,12.23
2022-09-24T20:34:14.033Z,12.15
2022-09-24T20:37:36.063Z,12.08
2022-09-24T20:41:08.636Z,12.15
2022-09-24T20:44:36.895Z,12.10
2022-09-24T20:48:24.620Z,12.05
2022-09-24T20:52:12.905Z,11.93
2022-09-24T20:56:01.751Z,11.73
2022-09-24T20:59:30.234Z,11.74
2022-09-24T21:03:31.875Z,11.72
2022-09-24T21:06:55.533Z,11.71
2022-09-24T21:09:51.774Z,11.64
2022-09-24T21:13:28.523Z,11.54
2022-09-24T21:17:16.921Z,11.38
2022-09-24T21:20:58.008Z,11.33
2022-09-24T21:24:41.477Z,11.30
2022-09-24T21:28:09.404Z,11.26
2022-09-24T21:31:26.922Z,11.31
2022-09-24T21:35:15.305Z,11.45
2022-09-24T21:38:53.736Z,11.57
2022-09-24T21:42:41.365Z,11.61
2022-09-24T21:45:44.603Z,11.68
2022-09-24T21:49:34.158Z,11.73
2022-09-24T21:52:42.302Z,11.84
2022-09-24T21:56:30.848Z,11.92
2022-09-24T21:59:41.160Z,11.91
2022-09-24T22:03:09.203Z,11.89
2022-09-24T22:06:57.126Z,11.80
2022-09-24T22:10:45.486Z,11.78
2022-09-24T22:14:05.226Z,11.71
2022-09-24T22:17:42.990Z,11.56
2022-09-24T22:20:32.160Z,11.57
2022-09-24T22:24:00.504Z,11.56
2022-09-24T22:27:26.897Z,11.45
2022-09-24T22:31:04.727Z,11.47
2022-09-24T22:34:51.297Z,11.47
2022-09-24T22:38:00.806Z,11.38
2022-09-24T22:41:30.925Z,11.32
2022-09-24T22:45:09.830Z,11.19
2022-09-24T22:48:30.380Z,11.09
2022-09-24T22:51:39.633Z,11.05
2022-09-24T22:54:50.502Z,10.97
2022-09-24T22:58:18.198Z,10.87
2022-09-24T23:01:39.971Z,10.80
2022-09-24T23:04:27.550Z,10.75
2022-09-24T23:08:01.830Z,10.73
2022-09-24T23:11:32.307Z,10.70
2022-09-24T23:14:12.583Z,10.48
2022-09-24T23:17:13.473Z,10.55
2022-09-24T23:20:44.147Z,10.63
2022-09-24T23:24:12.048Z,10.66
2022-09-24T23:27:29.499Z,10.61
2022-09-24T23:31:17.089Z,10.52
2022-09-24T23:34:51.593Z,10.36
2022-09-24T23:38:39.119Z,10.32
2022-09-24T23:42:26.820Z,10.05
2022-09-24T23:46:14.389Z,9.90
2022-09-24T23:50:02.447Z,10.00
2022-09-24T23:53:31.594Z,10.06
2022-09-24T23:56:18.757Z,9.98
2022-09-24T23:59:23.806Z,9.99
